createdAt,value
2018-11-12T00:00:37.384Z,11.10
2018-11-12T00:03:06.624Z,10.83
2018-11-12T00:05:35.807Z,10.40
2018-11-12T00:08:05.577Z,12.83
2018-11-12T00:10:34.847Z,12.63
2018-11-12T00:13:04.393Z,10.73
2018-11-12T00:15:33.599Z,12.60
2018-11-12T00:18:02.801Z,11.60
2018-11-12T00:20:31.995Z,13.03
2018-11-12T00:23:01.217Z,13.83
2018-11-12T00:25:30.583Z,12.80
2018-11-12T00:27:59.780Z,17.07
2018-11-12T00:30:29.064Z,13.90
2018-11-12T00:32:58.277Z,20.53
2018-11-12T00:35:27.493Z,13.77
2018-11-12T00:37:56.732Z,15.60
2018-11-12T00:40:25.935Z,11.97
2018-11-12T00:42:55.200Z,11.40
2018-11-12T00:45:24.469Z,11.83
2018-11-12T00:47:53.701Z,11.07
2018-11-12T00:50:22.952Z,22.50
2018-11-12T00:52:52.457Z,12.07
2018-11-12T00:55:21.701Z,14.30
2018-11-12T00:57:51.084Z,11.90
2018-11-12T01:00:20.810Z,13.80
2018-11-12T01:02:50.769Z,17.73
2018-11-12T01:05:20.310Z,16.03
2018-11-12T01:07:49.685Z,16.70
2018-11-12T01:10:19.628Z,14.13
2018-11-12T01:12:48.876Z,14.67
2018-11-12T01:15:19.800Z,17.60
2018-11-12T01:17:49.041Z,13.77
2018-11-12T01:20:18.582Z,14.43
2018-11-12T01:22:47.848Z,17.53
2018-11-12T01:25:17.106Z,13.67
2018-11-12T01:27:46.701Z,19.73
2018-11-12T01:30:17.130Z,14.67
2018-11-12T01:32:46.629Z,16.60
2018-11-12T01:35:16.717Z,14.83
2018-11-12T01:37:46.570Z,14.87
2018-11-12T01:40:16.466Z,15.00
2018-11-12T01:42:46.076Z,14.67
2018-11-12T01:45:18.841Z,16.23
2018-11-12T01:47:49.284Z,15.37
2018-11-12T01:50:19.304Z,16.20
2018-11-12T01:52:49.751Z,14.57
2018-11-12T01:55:19.641Z,15.30
2018-11-12T01:57:48.888Z,15.70
2018-11-12T02:00:21.468Z,18.90
2018-11-12T02:02:51.861Z,16.17
2018-11-12T02:05:21.093Z,18.57
2018-11-12T02:07:50.768Z,14.97
2018-11-12T02:10:20.261Z,16.03
2018-11-12T02:12:49.512Z,16.87
2018-11-12T02:15:21.046Z,14.30
2018-11-12T02:17:50.718Z,16.27
2018-11-12T02:20:20.949Z,21.33
2018-11-12T02:22:50.763Z,26.67
2018-11-12T02:25:20.365Z,16.23
2018-11-12T02:27:50.176Z,12.83
2018-11-12T02:30:24.716Z,14.03
2018-11-12T02:32:53.961Z,21.17
2018-11-12T02:35:23.188Z,21.53
2018-11-12T02:37:52.457Z,13.63
2018-11-12T02:40:21.925Z,12.20
2018-11-12T02:42:51.147Z,18.33
2018-11-12T02:45:20.436Z,13.90
2018-11-12T02:47:49.667Z,12.10
2018-11-12T02:50:18.965Z,11.50
2018-11-12T02:52:48.637Z,11.40
2018-11-12T02:55:17.909Z,11.63
2018-11-12T02:57:47.650Z,12.57
2018-11-12T03:00:20.807Z,11.40
2018-11-12T03:02:50.197Z,11.70
2018-11-12T03:05:19.457Z,10.07
2018-11-12T03:07:49.362Z,11.27
2018-11-12T03:10:21.145Z,13.03
2018-11-12T03:12:50.424Z,10.13
2018-11-12T03:15:20.364Z,12.60
2018-11-12T03:17:50.447Z,10.40
2018-11-12T03:20:20.984Z,11.07
2018-11-12T03:22:50.220Z,9.30
2018-11-12T03:25:20.581Z,10.53
2018-11-12T03:27:50.931Z,11.23
2018-11-12T03:30:21.234Z,11.90
2018-11-12T03:32:51.382Z,10.97
2018-11-12T03:35:20.652Z,11.40
2018-11-12T03:37:50.709Z,11.27
2018-11-12T03:40:22.197Z,10.93
2018-11-12T03:42:51.723Z,13.53
2018-11-12T03:45:22.034Z,9.70
2018-11-12T03:47:51.362Z,12.60
2018-11-12T03:50:21.745Z,10.77
2018-11-12T03:52:50.980Z,10.97
2018-11-12T03:55:21.217Z,8.90
2018-11-12T03:57:50.465Z,9.50
2018-11-12T04:00:34.877Z,9.43
2018-11-12T04:03:04.154Z,9.53
2018-11-12T04:05:33.652Z,8.87
2018-11-12T04:08:03.018Z,8.47
2018-11-12T04:10:32.334Z,7.93
2018-11-12T04:13:01.550Z,7.40
2018-11-12T04:15:30.802Z,6.03
2018-11-12T04:18:00.030Z,7.83
2018-11-12T04:20:29.273Z,7.23
2018-11-12T04:23:02.737Z,6.47
2018-11-12T04:25:33.154Z,10.60
2018-11-12T04:28:03.242Z,6.67
2018-11-12T04:30:32.713Z,6.77
2018-11-12T04:33:02.221Z,5.70
2018-11-12T04:35:31.534Z,5.73
2018-11-12T04:38:00.789Z,7.47
2018-11-12T04:40:30.019Z,6.33
2018-11-12T04:42:59.297Z,6.50
2018-11-12T04:45:28.574Z,6.87
2018-11-12T04:47:57.753Z,8.87
2018-11-12T04:50:28.554Z,6.87
2018-11-12T04:52:57.782Z,7.07
2018-11-12T04:55:27.075Z,7.63
2018-11-12T04:57:56.348Z,7.93
2018-11-12T05:00:26.886Z,9.03
2018-11-12T05:02:56.189Z,17.93
2018-11-12T05:05:26.657Z,6.57
2018-11-12T05:07:55.904Z,15.20
2018-11-12T05:10:26.142Z,9.33
2018-11-12T05:12:56.174Z,13.47
2018-11-12T05:15:25.983Z,9.90
2018-11-12T05:17:55.244Z,9.50
2018-11-12T05:20:26.872Z,9.87
2018-11-12T05:22:56.124Z,12.37
2018-11-12T05:25:25.468Z,10.50
2018-11-12T05:27:54.776Z,17.73
2018-11-12T05:30:25.673Z,13.10
2018-11-12T05:32:55.497Z,8.67
2018-11-12T05:35:25.900Z,11.63
2018-11-12T05:37:55.192Z,16.10
2018-11-12T05:40:25.473Z,12.83
2018-11-12T05:42:54.940Z,15.00
2018-11-12T05:45:25.466Z,14.00
2018-11-12T05:47:54.737Z,9.57
2018-11-12T05:50:25.309Z,20.07
2018-11-12T05:52:57.919Z,16.60
2018-11-12T05:55:28.173Z,13.60
2018-11-12T05:57:57.473Z,22.40
2018-11-12T06:00:34.433Z,11.93
2018-11-12T06:03:04.120Z,16.73
2018-11-12T06:05:34.124Z,18.60
2018-11-12T06:08:04.144Z,10.10
2018-11-12T06:10:34.040Z,13.00
2018-11-12T06:13:03.282Z,12.63
2018-11-12T06:15:32.538Z,14.33
2018-11-12T06:18:02.036Z,14.43
2018-11-12T06:20:32.376Z,9.90
2018-11-12T06:23:01.632Z,14.83
2018-11-12T06:25:33.230Z,20.43
2018-11-12T06:28:03.161Z,20.03
2018-11-12T06:30:34.188Z,12.70
2018-11-12T06:33:03.718Z,11.20
2018-11-12T06:35:32.961Z,16.90
2018-11-12T06:38:02.450Z,11.63
2018-11-12T06:40:31.665Z,16.37
2018-11-12T06:43:01.493Z,20.13
2018-11-12T06:45:31.301Z,10.70
2018-11-12T06:48:01.028Z,17.23
2018-11-12T06:50:32.089Z,17.10
2018-11-12T06:53:01.847Z,20.60
2018-11-12T06:55:31.165Z,14.73
2018-11-12T06:58:00.433Z,21.77
2018-11-12T07:00:32.851Z,23.53
2018-11-12T07:03:02.613Z,17.30
2018-11-12T07:05:32.397Z,17.87
2018-11-12T07:08:01.633Z,19.90
2018-11-12T07:10:31.413Z,18.70
2018-11-12T07:13:01.064Z,21.33
2018-11-12T07:15:30.510Z,18.50
2018-11-12T07:18:00.058Z,21.73
2018-11-12T07:20:29.772Z,20.37
2018-11-12T07:22:58.998Z,25.00
2018-11-12T07:25:29.599Z,14.60
2018-11-12T07:27:59.056Z,14.93
2018-11-12T07:30:28.768Z,19.73
2018-11-12T07:32:59.304Z,19.57
2018-11-12T07:35:28.685Z,25.63
2018-11-12T07:37:58.337Z,19.90
2018-11-12T07:40:27.831Z,20.17
2018-11-12T07:42:57.098Z,17.03
2018-11-12T07:45:27.753Z,19.83
2018-11-12T07:47:57.821Z,12.53
2018-11-12T07:50:28.405Z,20.90
2018-11-12T07:52:57.647Z,15.50
2018-11-12T07:55:28.550Z,13.57
2018-11-12T07:57:58.676Z,11.47
2018-11-12T08:00:30.249Z,16.30
2018-11-12T08:03:04.531Z,13.87
2018-11-12T08:05:34.021Z,18.23
2018-11-12T08:08:03.551Z,17.33
2018-11-12T08:10:32.820Z,17.47
2018-11-12T08:13:02.681Z,18.53
2018-11-12T08:15:31.921Z,18.23
2018-11-12T08:18:01.257Z,22.33
2018-11-12T08:20:30.560Z,14.70
2018-11-12T08:22:59.829Z,21.40
2018-11-12T08:25:29.119Z,13.57
2018-11-12T08:27:58.389Z,22.03
2018-11-12T08:30:28.786Z,23.83
2018-11-12T08:33:00.516Z,21.67
2018-11-12T08:35:29.925Z,20.50
2018-11-12T08:37:59.455Z,17.17
2018-11-12T08:40:29.673Z,20.73
2018-11-12T08:42:58.845Z,18.17
2018-11-12T08:45:28.086Z,25.33
2018-11-12T08:47:57.910Z,16.30
2018-11-12T08:50:27.811Z,15.10
2018-11-12T08:52:57.625Z,13.03
2018-11-12T08:55:28.916Z,18.37
2018-11-12T08:57:59.727Z,17.40
2018-11-12T09:00:29.262Z,17.00
2018-11-12T09:02:58.531Z,17.90
2018-11-12T09:05:29.041Z,12.20
2018-11-12T09:08:00.401Z,21.13
2018-11-12T09:10:30.916Z,22.43
2018-11-12T09:13:00.219Z,14.17
2018-11-12T09:15:29.808Z,20.63
2018-11-12T09:17:59.425Z,19.47
2018-11-12T09:20:29.149Z,16.60
2018-11-12T09:22:58.466Z,17.50
2018-11-12T09:25:28.356Z,18.03
2018-11-12T09:27:57.625Z,17.17
2018-11-12T09:30:28.132Z,14.73
2018-11-12T09:32:57.412Z,15.20
2018-11-12T09:35:30.639Z,14.83
2018-11-12T09:38:01.827Z,17.90
2018-11-12T09:40:34.087Z,15.47
2018-11-12T09:43:03.399Z,17.27
2018-11-12T09:45:32.802Z,13.20
2018-11-12T09:48:02.164Z,17.40
2018-11-12T09:50:31.419Z,17.20
2018-11-12T09:53:01.625Z,21.77
2018-11-12T09:55:32.226Z,17.63
2018-11-12T09:58:02.811Z,16.77
2018-11-12T10:00:32.249Z,15.50
2018-11-12T10:03:02.035Z,17.93
2018-11-12T10:05:32.684Z,13.40
2018-11-12T10:08:05.193Z,13.37
2018-11-12T10:10:40.319Z,12.50
2018-11-12T10:13:12.151Z,9.80
2018-11-12T10:15:41.215Z,12.10
2018-11-12T10:20:37.557Z,9.17
2018-11-12T10:23:06.828Z,9.47
2018-11-12T10:25:36.084Z,18.70
2018-11-12T10:28:05.805Z,11.67
2018-11-12T10:30:35.041Z,27.03
2018-11-12T10:33:04.814Z,18.83
2018-11-12T10:35:34.606Z,30.90
2018-11-12T10:38:04.709Z,19.77
2018-11-12T10:40:33.969Z,17.00
2018-11-12T10:43:03.529Z,13.93
2018-11-12T10:45:32.973Z,15.93
2018-11-12T10:48:02.261Z,10.23
2018-11-12T10:50:31.534Z,18.00
2018-11-12T10:53:00.773Z,10.87
2018-11-12T10:55:30.318Z,15.80
2018-11-12T10:58:00.047Z,11.50
2018-11-12T11:00:35.856Z,15.73
2018-11-12T11:03:12.896Z,16.07
2018-11-12T11:05:43.299Z,16.60
2018-11-12T11:08:12.592Z,13.30
2018-11-12T11:10:41.865Z,14.83
2018-11-12T11:13:11.108Z,16.07
2018-11-12T11:15:40.705Z,12.53
2018-11-12T11:18:10.382Z,12.23
2018-11-12T11:20:39.621Z,17.17
2018-11-12T11:23:08.872Z,15.70
2018-11-12T11:25:38.157Z,10.20
2018-11-12T11:28:07.396Z,12.53
2018-11-12T11:30:36.673Z,14.20
2018-11-12T11:33:05.991Z,12.33
2018-11-12T11:35:35.242Z,9.80
2018-11-12T11:38:05.025Z,10.77
2018-11-12T11:40:34.606Z,10.43
2018-11-12T11:43:03.881Z,13.70
2018-11-12T11:45:33.117Z,33.33
2018-11-12T11:48:02.436Z,21.30
2018-11-12T11:50:31.797Z,16.53
2018-11-12T11:53:01.034Z,18.33
2018-11-12T11:55:30.321Z,13.83
2018-11-12T11:57:59.576Z,23.87
2018-11-12T12:00:29.561Z,17.63
2018-11-12T12:02:59.844Z,20.43
2018-11-12T12:05:29.391Z,24.90
2018-11-12T12:07:58.996Z,15.90
2018-11-12T12:10:28.276Z,22.40
2018-11-12T12:12:57.553Z,15.40
2018-11-12T12:15:26.841Z,19.40
2018-11-12T12:17:56.126Z,19.00
2018-11-12T12:20:26.450Z,23.33
2018-11-12T12:22:56.064Z,12.73
2018-11-12T12:25:25.832Z,18.03
2018-11-12T12:27:55.084Z,23.73
2018-11-12T12:30:25.672Z,24.80
2018-11-12T12:32:55.813Z,17.90
2018-11-12T12:35:25.092Z,17.97
2018-11-12T12:37:54.633Z,17.17
2018-11-12T12:40:25.161Z,21.70
2018-11-12T12:42:56.861Z,14.83
2018-11-12T12:45:27.297Z,27.37
2018-11-12T12:47:57.435Z,17.70
2018-11-12T12:50:26.667Z,20.50
2018-11-12T12:52:55.952Z,32.20
2018-11-12T12:55:25.215Z,30.53
2018-11-12T12:57:54.441Z,39.07
2018-11-12T13:00:25.154Z,24.80
2018-11-12T13:02:54.502Z,20.53
2018-11-12T13:05:23.852Z,21.70
2018-11-12T13:07:53.194Z,25.40
2018-11-12T13:10:23.298Z,20.27
2018-11-12T13:12:52.673Z,24.67
2018-11-12T13:15:22.502Z,20.23
2018-11-12T13:17:52.221Z,16.00
2018-11-12T13:20:23.212Z,19.40
2018-11-12T13:22:52.505Z,31.30
2018-11-12T13:25:21.764Z,45.10
2018-11-12T13:27:51.185Z,54.53
2018-11-12T13:30:22.653Z,66.37
2018-11-12T13:32:52.194Z,61.20
2018-11-12T13:35:23.912Z,74.73
2018-11-12T13:37:53.225Z,29.87
2018-11-12T13:40:24.048Z,29.10
2018-11-12T13:42:55.573Z,25.70
2018-11-12T13:45:25.390Z,27.00
2018-11-12T13:47:55.101Z,48.63
2018-11-12T13:50:25.663Z,56.37
2018-11-12T13:52:55.260Z,56.53
2018-11-12T13:55:24.974Z,45.43
2018-11-12T13:57:54.248Z,41.80
2018-11-12T14:00:26.102Z,67.27
2018-11-12T14:02:56.351Z,38.90
2018-11-12T14:05:26.347Z,48.87
2018-11-12T14:07:56.028Z,49.10
2018-11-12T14:10:27.029Z,51.97
2018-11-12T14:12:57.018Z,44.13
2018-11-12T14:15:26.833Z,50.90
2018-11-12T14:17:56.561Z,54.37
2018-11-12T14:20:26.377Z,39.40
2018-11-12T14:22:55.529Z,29.73
2018-11-12T14:25:25.741Z,24.60
2018-11-12T14:27:56.190Z,36.90
2018-11-12T14:30:27.497Z,21.77
2018-11-12T14:32:56.774Z,42.90
2018-11-12T14:35:26.192Z,25.47
2018-11-12T14:37:55.514Z,28.63
2018-11-12T14:40:24.756Z,27.53
2018-11-12T14:42:54.497Z,24.13
2018-11-12T14:45:23.945Z,18.80
2018-11-12T14:47:53.106Z,23.43
2018-11-12T14:50:22.695Z,30.43
2018-11-12T14:52:51.973Z,37.93
2018-11-12T14:55:21.217Z,45.77
2018-11-12T14:57:50.549Z,28.87
2018-11-12T15:00:24.204Z,36.27
2018-11-12T15:02:53.929Z,43.70
2018-11-12T15:05:24.312Z,48.70
2018-11-12T15:07:53.654Z,52.40
2018-11-12T15:10:22.936Z,38.17
2018-11-12T15:12:52.511Z,37.60
2018-11-12T15:15:21.884Z,27.20
2018-11-12T15:17:51.136Z,25.33
2018-11-12T15:20:20.673Z,27.63
2018-11-12T15:22:50.125Z,33.37
2018-11-12T15:25:21.081Z,27.80
2018-11-12T15:27:52.809Z,25.47
2018-11-12T15:30:23.273Z,24.20
2018-11-12T15:32:53.895Z,27.00
2018-11-12T15:35:23.196Z,25.27
2018-11-12T15:37:52.813Z,31.37
2018-11-12T15:40:22.364Z,25.83
2018-11-12T15:42:51.605Z,28.57
2018-11-12T15:45:23.241Z,25.23
2018-11-12T15:47:52.569Z,30.40
2018-11-12T15:50:25.287Z,28.03
2018-11-12T15:52:55.792Z,26.83
2018-11-12T15:55:25.281Z,27.23
2018-11-12T15:57:55.006Z,24.60
2018-11-12T16:00:24.123Z,24.20
2018-11-12T16:02:53.384Z,31.80
2018-11-12T16:05:23.082Z,21.87
2018-11-12T16:07:52.332Z,21.03
2018-11-12T16:10:22.196Z,18.10
2018-11-12T16:12:51.955Z,26.70
2018-11-12T16:15:21.932Z,26.63
2018-11-12T16:17:51.203Z,22.80
2018-11-12T16:20:27.220Z,23.17
2018-11-12T16:22:57.416Z,26.70
2018-11-12T16:25:27.131Z,21.20
2018-11-12T16:27:56.471Z,25.30
2018-11-12T16:30:25.747Z,36.97
2018-11-12T16:32:55.000Z,31.47
2018-11-12T16:35:25.099Z,20.23
2018-11-12T16:37:55.979Z,31.60
2018-11-12T16:40:25.470Z,19.73
2018-11-12T16:42:54.962Z,23.57
2018-11-12T16:45:24.336Z,29.10
2018-11-12T16:47:53.590Z,23.80
2018-11-12T16:50:22.954Z,20.37
2018-11-12T16:52:52.245Z,27.37
2018-11-12T16:55:22.633Z,32.33
2018-11-12T16:57:51.988Z,26.50
2018-11-12T17:00:22.565Z,30.43
2018-11-12T17:02:51.879Z,29.03
2018-11-12T17:05:22.612Z,19.53
2018-11-12T17:07:52.005Z,23.40
2018-11-12T17:10:22.666Z,25.23
2018-11-12T17:12:51.953Z,23.17
2018-11-12T17:15:21.597Z,26.73
2018-11-12T17:17:50.950Z,22.33
2018-11-12T17:20:21.332Z,31.23
2018-11-12T17:22:50.683Z,25.20
2018-11-12T17:25:19.941Z,33.33
2018-11-12T17:27:49.654Z,18.33
2018-11-12T17:30:20.159Z,22.90
2018-11-12T17:32:53.338Z,21.63
2018-11-12T17:35:23.223Z,27.77
2018-11-12T17:37:52.506Z,21.03
2018-11-12T17:40:24.313Z,26.10
2018-11-12T17:42:54.300Z,26.67
2018-11-12T17:45:24.821Z,22.50
2018-11-12T17:47:55.153Z,23.53
2018-11-12T17:50:24.396Z,25.73
2018-11-12T17:52:53.929Z,23.80
2018-11-12T17:55:23.275Z,24.03
2018-11-12T17:57:52.542Z,33.93
2018-11-12T18:00:26.072Z,21.77
2018-11-12T18:02:55.316Z,23.17
2018-11-12T18:05:24.589Z,25.27
2018-11-12T18:07:54.437Z,20.07
2018-11-12T18:10:23.896Z,23.30
2018-11-12T18:12:53.188Z,21.57
2018-11-12T18:15:23.305Z,21.83
2018-11-12T18:17:52.658Z,24.20
2018-11-12T18:20:24.022Z,20.80
2018-11-12T18:22:55.866Z,32.53
2018-11-12T18:25:25.754Z,25.10
2018-11-12T18:27:55.653Z,23.80
2018-11-12T18:30:26.596Z,21.23
2018-11-12T18:32:56.625Z,23.70
2018-11-12T18:35:25.900Z,18.43
2018-11-12T18:37:55.616Z,19.33
2018-11-12T18:40:26.349Z,22.77
2018-11-12T18:42:55.589Z,20.67
2018-11-12T18:45:26.144Z,22.17
2018-11-12T18:47:56.505Z,24.00
2018-11-12T18:50:27.296Z,33.03
2018-11-12T18:52:56.563Z,17.37
2018-11-12T18:55:25.833Z,21.37
2018-11-12T18:57:55.669Z,23.90
2018-11-12T19:00:25.791Z,18.20
2018-11-12T19:02:55.372Z,18.47
2018-11-12T19:05:27.091Z,20.03
2018-11-12T19:07:57.731Z,17.40
2018-11-12T19:10:28.308Z,15.87
2018-11-12T19:12:57.576Z,27.47
2018-11-12T19:15:28.449Z,28.00
2018-11-12T19:17:59.400Z,29.50
2018-11-12T19:20:28.884Z,27.33
2018-11-12T19:22:58.140Z,17.20
2018-11-12T19:25:27.492Z,18.17
2018-11-12T19:27:56.729Z,26.13
2018-11-12T19:30:27.136Z,24.00
2018-11-12T19:32:56.478Z,27.40
2018-11-12T19:35:27.020Z,20.50
2018-11-12T19:37:56.257Z,21.70
2018-11-12T19:40:26.921Z,28.90
2018-11-12T19:42:56.785Z,24.13
2018-11-12T19:45:26.026Z,24.43
2018-11-12T19:47:56.012Z,23.10
2018-11-12T19:50:26.856Z,17.90
2018-11-12T19:52:57.223Z,25.27
2018-11-12T19:55:26.534Z,24.03
2018-11-12T19:57:55.850Z,22.13
2018-11-12T20:00:26.309Z,21.87
2018-11-12T20:02:56.629Z,18.97
2018-11-12T20:05:25.920Z,35.30
2018-11-12T20:07:55.550Z,22.13
2018-11-12T20:10:24.973Z,24.20
2018-11-12T20:12:54.305Z,21.00
2018-11-12T20:15:24.539Z,30.40
2018-11-12T20:17:54.377Z,28.60
2018-11-12T20:20:25.045Z,28.90
2018-11-12T20:22:54.419Z,21.27
2018-11-12T20:25:23.653Z,21.70
2018-11-12T20:27:54.058Z,24.63
2018-11-12T20:30:28.890Z,23.03
2018-11-12T20:32:58.167Z,20.33
2018-11-12T20:35:27.392Z,19.40
2018-11-12T20:37:56.661Z,25.83
2018-11-12T20:40:25.954Z,28.37
2018-11-12T20:42:55.204Z,20.73
2018-11-12T20:45:24.788Z,37.90
2018-11-12T20:47:55.569Z,19.20
2018-11-12T20:50:24.836Z,25.27
2018-11-12T20:52:54.496Z,35.43
2018-11-12T20:55:23.803Z,18.17
2018-11-12T20:57:53.060Z,20.57
2018-11-12T21:00:23.647Z,37.63
2018-11-12T21:02:53.561Z,23.67
2018-11-12T21:05:24.304Z,20.97
2018-11-12T21:07:53.600Z,22.27
2018-11-12T21:10:23.112Z,21.70
2018-11-12T21:12:52.610Z,23.03
2018-11-12T21:15:22.933Z,25.47
2018-11-12T21:17:52.288Z,33.83
2018-11-12T21:20:22.839Z,23.80
2018-11-12T21:22:52.588Z,21.20
2018-11-12T21:25:22.929Z,24.93
2018-11-12T21:27:52.309Z,19.87
2018-11-12T21:30:22.740Z,20.40
2018-11-12T21:32:52.183Z,23.40
2018-11-12T21:35:21.462Z,19.70
2018-11-12T21:37:51.605Z,24.90
2018-11-12T21:40:22.209Z,24.07
2018-11-12T21:42:51.526Z,25.80
2018-11-12T21:45:22.426Z,25.87
2018-11-12T21:47:51.712Z,22.93
2018-11-12T21:50:21.592Z,22.60
2018-11-12T21:52:50.956Z,28.43
2018-11-12T21:55:21.092Z,23.77
2018-11-12T21:57:50.343Z,24.50
2018-11-12T22:00:26.852Z,28.57
2018-11-12T22:02:57.569Z,23.27
2018-11-12T22:05:27.606Z,24.73
2018-11-12T22:07:56.904Z,23.00
2018-11-12T22:10:26.169Z,37.70
2018-11-12T22:12:55.798Z,23.07
2018-11-12T22:15:25.186Z,22.93
2018-11-12T22:17:54.420Z,24.03
2018-11-12T22:20:25.145Z,22.27
2018-11-12T22:22:54.417Z,22.37
2018-11-12T22:25:24.144Z,20.80
2018-11-12T22:27:53.994Z,25.00
2018-11-12T22:30:25.723Z,22.80
2018-11-12T22:32:55.718Z,21.13
2018-11-12T22:35:24.966Z,22.77
2018-11-12T22:37:54.864Z,23.83
2018-11-12T22:40:24.105Z,23.90
2018-11-12T22:42:53.761Z,24.43
2018-11-12T22:45:24.132Z,21.40
2018-11-12T22:47:53.788Z,22.57
2018-11-12T22:50:23.085Z,22.13
2018-11-12T22:52:52.409Z,20.70
2018-11-12T22:55:21.951Z,23.53
2018-11-12T22:57:51.173Z,21.37
2018-11-12T23:00:27.045Z,19.53
2018-11-12T23:02:56.869Z,21.07
2018-11-12T23:05:26.166Z,21.77
2018-11-12T23:07:56.011Z,21.90
2018-11-12T23:10:25.540Z,19.67
2018-11-12T23:12:54.778Z,28.50
2018-11-12T23:15:24.121Z,23.30
2018-11-12T23:17:53.370Z,25.23
2018-11-12T23:20:23.802Z,18.80
2018-11-12T23:22:53.961Z,18.93
2018-11-12T23:25:23.213Z,22.27
2018-11-12T23:27:53.055Z,19.57
2018-11-12T23:30:23.453Z,20.63
2018-11-12T23:32:52.737Z,20.17
2018-11-12T23:35:23.313Z,17.87
2018-11-12T23:37:52.585Z,19.80
2018-11-12T23:40:21.834Z,22.23
2018-11-12T23:42:51.085Z,21.50
2018-11-12T23:45:20.724Z,22.00
2018-11-12T23:47:49.968Z,18.13
2018-11-12T23:50:21.610Z,22.10
2018-11-12T23:52:51.897Z,18.73
2018-11-12T23:55:21.406Z,21.77
2018-11-12T23:57:51.348Z,17.10
